Lmz Ariel — V7XR4 — position and weather

sailwx.info

Track history (hours):
 
Tides and Currents Weather Stations Pressure Air Temp Water Temp Dewpoint Dewpoint Depression Visibility Wind Speed Wind Dir Waves Ship Positions

Lmz Ariel

Last reported at 2017-Sep-25 01:32 UTC. Time now 2017-Oct-18 03:40 UTC.
Position N 27°33' W 013°58'.
Warning: this ship's position is 23 days out of date.

Length 190 m; draft 8.5 m.

Type: Cargo ship. MMSI: 538004551.

Date/timePositionNaut miles runAvg speedWind from/ knotsBaromVisibWave heightAir tempDewpointWater temp
2017-Sep-25 01:32N 27°33' W 013°58'213.7
2017-Sep-25 01:23N 27°35' W 013°57'513.6
2017-Sep-25 01:00N 27°39' W 013°54'713.7
2017-Sep-25 00:28N 27°45' W 013°49'813.9
2017-Sep-24 23:52N 27°52' W 013°44'6014.1
2017-Sep-24 19:34N 28°42' W 013°04'1313.7
2017-Sep-24 18:37N 28°53' W 012°56'513.9
2017-Sep-24 18:15N 28°57' W 012°53'1814.3
2017-Sep-24 16:58N 29°12' W 012°41'713.8
2017-Sep-24 16:29N 29°17' W 012°36'713.5
2017-Sep-24 16:00N 29°23' W 012°32'913.6
2017-Sep-24 15:20N 29°30' W 012°26'713.7
2017-Sep-24 14:51N 29°35' W 012°21'513.6
2017-Sep-24 14:30N 29°39' W 012°18'2213.6
2017-Sep-24 12:51N 29°58' W 012°04'513.7
2017-Sep-24 12:29N 30°02' W 012°01'613.7
2017-Sep-24 12:01N 30°07' W 011°57'1013.8
2017-Sep-24 11:16N 30°16' W 011°50'313.6
2017-Sep-24 11:00N 30°18' W 011°47'713.3
2017-Sep-24 10:30N 30°24' W 011°43'713.3
2017-Sep-24 09:59N 30°30' W 011°38'813.3
2017-Sep-24 09:23N 30°36' W 011°33'513.2
2017-Sep-24 09:00N 30°40' W 011°30'913.4
2017-Sep-24 08:20N 30°48' W 011°24'413.5
2017-Sep-24 08:00N 30°51' W 011°21'713.7
2017-Sep-24 07:30N 30°57' W 011°16'713.8
2017-Sep-24 07:00N 31°03' W 011°12'714.0
2017-Sep-24 06:30N 31°08' W 011°07'714.3
2017-Sep-24 06:00N 31°14' W 011°02'713.9
2017-Sep-24 05:29N 31°20' W 010°57'713.8
2017-Sep-24 05:00N 31°26' W 010°53'713.9
2017-Sep-24 04:29N 31°31' W 010°48'713.9
2017-Sep-24 04:00N 31°37' W 010°44'714.1
2017-Sep-24 03:30N 31°43' W 010°39'713.7
2017-Sep-24 02:58N 31°49' W 010°34'613.8
2017-Sep-24 02:30N 31°54' W 010°30'713.7
2017-Sep-24 02:00N 31°60' W 010°25'713.6
2017-Sep-24 01:30N 32°05' W 010°21'713.5
2017-Sep-24 01:00N 32°11' W 010°16'713.4
2017-Sep-24 00:29N 32°17' W 010°11'1213.9
2017-Sep-23 23:36N 32°27' W 010°03'114.1
2017-Sep-23 23:30N 32°28' W 010°02'  
2017-Sep-21 16:55N 36°40' W 001°50'812.8
2017-Sep-21 16:16N 36°45' W 001°42'2214.0
2017-Sep-21 14:40N 37°01' W 001°22'214.0
2017-Sep-21 14:30N 37°02' W 001°19'3413.9
2017-Sep-21 12:03N 37°25' W 000°47'113.7
2017-Sep-21 11:59N 37°25' W 000°46'1113.8
2017-Sep-21 11:11N 37°32' W 000°36'513.9
2017-Sep-21 10:51N 37°36' W 000°32'5813.6
2017-Sep-21 06:33N 38°25' E 000°08'4813.1
2017-Sep-21 02:56N 39°06' E 000°39'613.1
2017-Sep-21 02:30N 39°11' E 000°42'612.8
2017-Sep-21 02:00N 39°17' E 000°46'712.8
2017-Sep-21 01:27N 39°23' E 000°51'612.9
2017-Sep-21 01:00N 39°28' E 000°54'1313.1
2017-Sep-21 00:02N 39°39' E 001°02'112.9
2017-Sep-20 23:59N 39°40' E 001°02'613.1
2017-Sep-20 23:30N 39°45' E 001°06'713.2
2017-Sep-20 23:00N 39°51' E 001°10'713.5
2017-Sep-20 22:30N 39°57' E 001°14'713.6
2017-Sep-20 22:00N 40°03' E 001°19'713.5
2017-Sep-20 21:30N 40°09' E 001°23'713.5
2017-Sep-20 21:00N 40°15' E 001°27'713.5
2017-Sep-20 20:30N 40°21' E 001°31'713.6
2017-Sep-20 20:00N 40°27' E 001°35'713.3
2017-Sep-20 19:30N 40°33' E 001°40'713.6
2017-Sep-20 19:00N 40°39' E 001°44'713.6
2017-Sep-20 18:30N 40°45' E 001°48'713.8
2017-Sep-20 18:00N 40°51' E 001°51'713.4
2017-Sep-20 17:30N 40°57' E 001°55'713.5
2017-Sep-20 17:00N 41°03' E 002°00'20 0.9
2017-Sep-19 18:36N 41°22' E 002°10'0 0.0
2017-Sep-19 18:30N 41°22' E 002°10'  
2017-Sep-15 11:22N 41°18' E 002°11'16 9.8
2017-Sep-15 09:45N 41°05' E 002°23'413.1
2017-Sep-15 09:25N 41°02' E 002°27'513.0
2017-Sep-15 09:00N 40°58' E 002°31'713.0
2017-Sep-15 08:30N 40°53' E 002°37'713.0
2017-Sep-15 08:00N 40°48' E 002°42'612.9
2017-Sep-15 07:30N 40°43' E 002°48'612.7
2017-Sep-15 07:00N 40°38' E 002°53'612.7
2017-Sep-15 06:30N 40°33' E 002°58'713.2
2017-Sep-15 06:00N 40°28' E 003°04'713.7
2017-Sep-15 05:30N 40°23' E 003°09'1314.0
2017-Sep-15 04:36N 40°13' E 003°20'214.0
2017-Sep-15 04:27N 40°11' E 003°22'1713.7
2017-Sep-15 03:14N 39°58' E 003°35'313.5
2017-Sep-15 02:59N 39°56' E 003°38'713.3
2017-Sep-15 02:28N 39°50' E 003°43'  
Track history (hours):
 
Tides and Currents Weather Stations Pressure Air Temp Water Temp Dewpoint Dewpoint Depression Visibility Wind Speed Wind Dir Waves Ship Positions

Lmz Ariel

Last reported at 2017-Sep-25 01:32 UTC. Time now 2017-Oct-18 03:40 UTC.
Position N 27°33' W 013°58'.
Warning: this ship's position is 23 days out of date.

Length 190 m; draft 8.5 m.

Type: Cargo ship. MMSI: 538004551.

Date/timePositionNaut miles runAvg speedWind from/ knotsBaromVisibWave heightAir tempDewpointWater temp
2017-Sep-25 01:32N 27°33' W 013°58'213.7
2017-Sep-25 01:23N 27°35' W 013°57'513.6
2017-Sep-25 01:00N 27°39' W 013°54'713.7
2017-Sep-25 00:28N 27°45' W 013°49'813.9
2017-Sep-24 23:52N 27°52' W 013°44'6014.1
2017-Sep-24 19:34N 28°42' W 013°04'1313.7
2017-Sep-24 18:37N 28°53' W 012°56'513.9
2017-Sep-24 18:15N 28°57' W 012°53'1814.3
2017-Sep-24 16:58N 29°12' W 012°41'713.8
2017-Sep-24 16:29N 29°17' W 012°36'713.5
2017-Sep-24 16:00N 29°23' W 012°32'913.6
2017-Sep-24 15:20N 29°30' W 012°26'713.7
2017-Sep-24 14:51N 29°35' W 012°21'513.6
2017-Sep-24 14:30N 29°39' W 012°18'2213.6
2017-Sep-24 12:51N 29°58' W 012°04'513.7
2017-Sep-24 12:29N 30°02' W 012°01'613.7
2017-Sep-24 12:01N 30°07' W 011°57'1013.8
2017-Sep-24 11:16N 30°16' W 011°50'313.6
2017-Sep-24 11:00N 30°18' W 011°47'713.3
2017-Sep-24 10:30N 30°24' W 011°43'713.3
2017-Sep-24 09:59N 30°30' W 011°38'813.3
2017-Sep-24 09:23N 30°36' W 011°33'513.2
2017-Sep-24 09:00N 30°40' W 011°30'913.4
2017-Sep-24 08:20N 30°48' W 011°24'413.5
2017-Sep-24 08:00N 30°51' W 011°21'713.7
2017-Sep-24 07:30N 30°57' W 011°16'713.8
2017-Sep-24 07:00N 31°03' W 011°12'714.0
2017-Sep-24 06:30N 31°08' W 011°07'714.3
2017-Sep-24 06:00N 31°14' W 011°02'713.9
2017-Sep-24 05:29N 31°20' W 010°57'713.8
2017-Sep-24 05:00N 31°26' W 010°53'713.9
2017-Sep-24 04:29N 31°31' W 010°48'713.9
2017-Sep-24 04:00N 31°37' W 010°44'714.1
2017-Sep-24 03:30N 31°43' W 010°39'713.7
2017-Sep-24 02:58N 31°49' W 010°34'613.8
2017-Sep-24 02:30N 31°54' W 010°30'713.7
2017-Sep-24 02:00N 31°60' W 010°25'713.6
2017-Sep-24 01:30N 32°05' W 010°21'713.5
2017-Sep-24 01:00N 32°11' W 010°16'713.4
2017-Sep-24 00:29N 32°17' W 010°11'1213.9
2017-Sep-23 23:36N 32°27' W 010°03'114.1
2017-Sep-23 23:30N 32°28' W 010°02'  
2017-Sep-21 16:55N 36°40' W 001°50'812.8
2017-Sep-21 16:16N 36°45' W 001°42'2214.0
2017-Sep-21 14:40N 37°01' W 001°22'214.0
2017-Sep-21 14:30N 37°02' W 001°19'3413.9
2017-Sep-21 12:03N 37°25' W 000°47'113.7
2017-Sep-21 11:59N 37°25' W 000°46'1113.8
2017-Sep-21 11:11N 37°32' W 000°36'513.9
2017-Sep-21 10:51N 37°36' W 000°32'5813.6
2017-Sep-21 06:33N 38°25' E 000°08'4813.1
2017-Sep-21 02:56N 39°06' E 000°39'613.1
2017-Sep-21 02:30N 39°11' E 000°42'612.8
2017-Sep-21 02:00N 39°17' E 000°46'712.8
2017-Sep-21 01:27N 39°23' E 000°51'612.9
2017-Sep-21 01:00N 39°28' E 000°54'1313.1
2017-Sep-21 00:02N 39°39' E 001°02'112.9
2017-Sep-20 23:59N 39°40' E 001°02'613.1
2017-Sep-20 23:30N 39°45' E 001°06'713.2
2017-Sep-20 23:00N 39°51' E 001°10'713.5
2017-Sep-20 22:30N 39°57' E 001°14'713.6
2017-Sep-20 22:00N 40°03' E 001°19'713.5
2017-Sep-20 21:30N 40°09' E 001°23'713.5
2017-Sep-20 21:00N 40°15' E 001°27'713.5
2017-Sep-20 20:30N 40°21' E 001°31'713.6
2017-Sep-20 20:00N 40°27' E 001°35'713.3
2017-Sep-20 19:30N 40°33' E 001°40'713.6
2017-Sep-20 19:00N 40°39' E 001°44'713.6
2017-Sep-20 18:30N 40°45' E 001°48'713.8
2017-Sep-20 18:00N 40°51' E 001°51'713.4
2017-Sep-20 17:30N 40°57' E 001°55'713.5
2017-Sep-20 17:00N 41°03' E 002°00'20 0.9
2017-Sep-19 18:36N 41°22' E 002°10'0 0.0
2017-Sep-19 18:30N 41°22' E 002°10'  
2017-Sep-15 11:22N 41°18' E 002°11'16 9.8
2017-Sep-15 09:45N 41°05' E 002°23'413.1
2017-Sep-15 09:25N 41°02' E 002°27'513.0
2017-Sep-15 09:00N 40°58' E 002°31'713.0
2017-Sep-15 08:30N 40°53' E 002°37'713.0
2017-Sep-15 08:00N 40°48' E 002°42'612.9
2017-Sep-15 07:30N 40°43' E 002°48'612.7
2017-Sep-15 07:00N 40°38' E 002°53'612.7
2017-Sep-15 06:30N 40°33' E 002°58'713.2
2017-Sep-15 06:00N 40°28' E 003°04'713.7
2017-Sep-15 05:30N 40°23' E 003°09'1314.0
2017-Sep-15 04:36N 40°13' E 003°20'214.0
2017-Sep-15 04:27N 40°11' E 003°22'1713.7
2017-Sep-15 03:14N 39°58' E 003°35'313.5
2017-Sep-15 02:59N 39°56' E 003°38'713.3
2017-Sep-15 02:28N 39°50' E 003°43'  

Dump ship's entire track history